Latest Weather Observations for Mount Hotham AWS

IDV60801

Issued at 7:05 pm EST Wednesday 23 July 2014 (issued every 30 minutes, with the page automatically refreshed every 10 minutes)

About weather observations | Map of weather stations | Latest weather observations for VIC | Other Formats
Station Details ID: 083085 Name: MOUNT HOTHAM Lat: -36.98 Lon: 147.13 Height: 1849.0 m
Data from the previous 72 hours. | See also: Recent months at Mount Hotham AWS
Date/Time
EST
Temp
°C
App
Temp
°C
Dew
Point
Rel
Hum
%
Delta-T
°C
Wind Press
QNH
hPa
Press
MSL
hPa
Rain
since 9 am
mm
Dir
 
Spd
km/h
Gust
km/h
Spd
kts
Gust
kts
23/07:00pm -1.2 -9.4 -1.3 99 0.0 N 32 37 17 20 - - 2.2
23/06:30pm -1.2 -9.4 -1.3 99 0.0 N 32 35 17 19 - - 2.2
23/06:00pm -0.7 -8.1 -0.8 99 0.0 N 28 32 15 17 - - 2.2
23/05:30pm -0.7 -8.1 -0.8 99 0.0 N 28 32 15 17 - - 2.0
23/05:00pm -0.3 -7.7 -0.4 99 0.0 N 28 32 15 17 - - 2.0
23/04:30pm -0.2 -7.2 -0.3 99 0.0 N 26 30 14 16 - - 2.0
23/04:00pm 0.3 -6.2 0.2 99 0.0 N 24 26 13 14 - - 2.0
23/03:30pm 0.5 -6.0 0.4 99 0.0 N 24 30 13 16 - - 2.0
23/03:00pm 0.7 -5.8 0.6 99 0.0 N 24 28 13 15 - - 1.8
23/02:30pm 0.9 -5.1 0.8 99 0.0 N 22 26 12 14 - - 1.4
23/02:00pm 0.5 -5.6 0.4 99 0.0 N 22 26 12 14 - - 1.4
23/01:30pm 0.7 -5.0 0.6 99 0.0 N 20 24 11 13 - - 1.2
23/01:00pm 0.6 -4.9 0.5 99 0.0 N 19 24 10 13 - - 1.2
23/12:30pm 1.1 -4.5 1.0 99 0.0 N 20 24 11 13 - - 0.6
23/12:00pm 0.8 -3.9 0.7 99 0.0 NNW 15 19 8 10 - - 0.4
23/11:30am 0.9 -3.1 0.8 99 0.0 S 11 15 6 8 - - 0.4
23/11:00am 0.4 -3.2 0.3 99 0.0 S 9 11 5 6 - - 0.0
23/10:30am -0.1 -3.8 -0.2 99 0.0 S 9 11 5 6 - - 0.0
23/10:00am -0.5 -3.7 -0.6 99 0.0 S 6 7 3 4 - - 0.0
23/09:30am -2.1 -4.4 -2.2 99 -0.1 CALM 0 0 0 0 - - 0.0
23/09:00am -2.0 -5.4 -2.1 99 -0.1 S 6 6 3 3 - - 0.2
23/08:30am -1.3 -4.8 -1.4 99 0.0 S 7 9 4 5 - - 0.2
23/08:00am -2.7 -6.4 -2.8 99 -0.1 S 7 9 4 5 - - 0.2
23/07:30am -3.0 -7.1 -3.1 99 -0.1 S 9 11 5 6 - - 0.2
23/07:00am -2.5 -6.5 -2.6 99 -0.1 S 9 11 5 6 - - 0.2
23/06:30am -1.8 -5.8 -1.9 99 -0.1 S 9 13 5 7 - - 0.2
23/06:00am -2.4 -6.8 -2.5 99 -0.1 S 11 13 6 7 - - 0.2
23/05:30am -3.2 -7.7 -3.3 99 -0.1 S 11 13 6 7 - - 0.2
23/05:00am -3.3 -7.4 -3.4 99 -0.1 S 9 11 5 6 - - 0.2
23/04:30am -3.5 -8.4 -3.6 99 -0.1 S 13 15 7 8 - - 0.2
23/04:00am -3.4 -8.7 -3.5 99 -0.1 S 15 15 8 8 - - 0.2
23/03:30am -2.6 -7.0 -2.7 99 -0.1 S 11 13 6 7 - - 0.2
23/03:00am -2.0 -6.7 -2.1 99 -0.1 S 13 15 7 8 - - 0.2
23/02:30am -2.6 -7.4 -2.7 99 -0.1 S 13 13 7 7 - - 0.2
23/02:00am -3.0 -8.2 -3.1 99 -0.1 S 15 15 8 8 - - 0.2
23/01:30am -2.8 -7.6 -2.9 99 -0.1 S 13 15 7 8 - - 0.2
23/01:00am -2.6 -7.0 -2.7 99 -0.1 SSE 11 13 6 7 - - 0.2
23/12:30am -1.3 -5.2 -1.4 99 0.0 SSE 9 9 5 5 - - 0.2
23/12:00am -1.3 -5.2 -1.4 99 0.0 SSE 9 11 5 6 - - 0.2
 
Date/Time
EST
Temp
°C
App
Temp
°C
Dew
Point
Rel
Hum
%
Delta-T
°C
Wind Press
QNH
hPa
Press
MSL
hPa
Rain
since 9 am
mm
Dir
 
Spd
km/h
Gust
km/h
Spd
kts
Gust
kts
22/11:30pm -1.2 -5.8 -1.3 99 0.0 SSE 13 17 7 9 - - 0.2
22/11:00pm -1.1 -5.7 -1.2 99 0.0 SSE 13 17 7 9 - - 0.2
22/10:30pm -2.0 -8.1 -2.1 99 -0.1 SSE 20 24 11 13 - - 0.2
22/10:00pm -1.2 -8.3 -1.3 99 0.0 SE 26 32 14 17 - - 0.2
22/09:30pm -1.4 -10.2 -1.5 99 0.0 SE 35 39 19 21 - - 0.2
22/09:00pm -1.7 -11.0 -1.8 99 0.0 SE 37 43 20 23 - - 0.2
22/08:30pm -2.1 -11.0 -2.2 99 -0.1 SE 35 43 19 23 - - 0.2
22/08:00pm -2.1 -11.0 -2.2 99 -0.1 SE 35 41 19 22 - - 0.2
22/07:30pm -2.4 -10.8 -2.5 99 -0.1 SSE 32 37 17 20 - - 0.2
22/07:00pm -2.8 -11.3 -2.9 99 -0.1 SSE 32 39 17 21 - - 0.2
22/06:30pm -3.6 -11.8 -3.7 99 -0.1 SSE 30 32 16 17 - - 0.2
22/06:00pm -3.4 -11.9 -3.5 99 -0.1 SSE 32 37 17 20 - - 0.2
22/05:30pm -3.0 -10.3 -3.1 99 -0.1 SSE 26 33 14 18 - - 0.2
22/05:00pm -2.9 -11.0 -3.0 99 -0.1 SSE 30 33 16 18 - - 0.2
22/04:30pm -2.4 -9.7 -2.5 99 -0.1 S 26 32 14 17 - - 0.2
22/04:00pm -2.2 -9.4 -2.3 99 -0.1 S 26 32 14 17 - - 0.2
22/03:30pm -2.0 -7.9 -2.1 99 -0.1 S 19 24 10 13 - - 0.2
22/03:00pm -1.7 -8.1 -1.8 99 0.0 S 22 30 12 16 - - 0.2
22/02:30pm -1.7 -7.7 -1.8 99 0.0 S 20 30 11 16 - - 0.2
22/02:00pm -1.8 -8.6 -1.9 99 -0.1 S 24 33 13 18 - - 0.2
22/01:30pm -1.9 -8.3 -2.0 99 -0.1 SSW 22 28 12 15 - - 0.2
22/01:00pm -2.3 -8.8 -2.4 99 -0.1 S 22 28 12 15 - - 0.2
22/12:30pm -2.5 -8.4 -2.6 99 -0.1 S 19 24 10 13 - - 0.2
22/12:00pm -2.9 -8.5 -3.0 99 -0.1 S 17 20 9 11 - - 0.0
22/11:30am -3.1 -8.0 -3.2 99 -0.1 SSW 13 19 7 10 - - 0.0
22/11:00am -3.8 -10.8 -3.9 99 -0.1 S 24 32 13 17 - - 0.0
22/10:30am -4.2 -11.3 -4.3 99 -0.2 S 24 28 13 15 - - 0.0
22/10:00am -4.7 -11.5 -4.8 99 -0.2 S 22 24 12 13 - - 0.0
22/09:30am -5.1 -11.9 -5.2 99 -0.2 S 22 24 12 13 - - 0.0
22/09:00am -5.6 -11.5 -5.7 99 -0.2 S 17 22 9 12 - - 0.2
22/08:30am -5.5 -9.9 -5.6 99 -0.2 S 9 11 5 6 - - 0.2
22/08:00am -5.8 -11.0 -5.9 99 -0.2 S 13 15 7 8 - - 0.2
22/07:30am -5.8 -11.0 -5.9 99 -0.2 S 13 15 7 8 - - 0.2
22/07:00am -5.8 -11.4 -5.9 99 -0.2 S 15 17 8 9 - - 0.2
22/06:30am -5.7 -12.0 -5.8 99 -0.2 S 19 20 10 11 - - 0.2
22/06:00am -5.8 -12.1 -5.9 99 -0.2 SSE 19 20 10 11 - - 0.2
22/05:30am -5.5 -12.0 -5.6 99 -0.2 SSE 20 22 11 12 - - 0.2
22/05:00am -5.4 -12.6 -5.5 99 -0.2 S 24 26 13 14 - - 0.2
22/04:30am -5.6 -12.5 -5.7 99 -0.2 SSE 22 24 12 13 - - 0.2
22/04:00am -5.6 -12.1 -5.7 99 -0.2 SSE 20 24 11 13 - - 0.2
22/03:30am -5.6 -11.9 -5.7 99 -0.2 S 19 22 10 12 - - 0.2
22/03:00am -5.5 -12.0 -5.6 99 -0.2 S 20 22 11 12 - - 0.2
22/02:30am -5.4 -12.2 -5.5 99 -0.2 S 22 24 12 13 - - 0.2
22/02:00am -5.1 -11.5 -5.2 99 -0.2 S 20 30 11 16 - - 0.2
22/01:30am -4.9 -11.1 -5.0 99 -0.2 S 19 22 10 12 - - 0.2
22/01:00am -4.7 -10.5 -4.8 99 -0.2 SSW 17 20 9 11 - - 0.2
22/12:30am -4.6 -10.8 -4.7 99 -0.2 S 19 24 10 13 - - 0.2
22/12:00am -4.4 -9.8 -4.5 99 -0.2 SSW 15 19 8 10 - - 0.2
 
Date/Time
EST
Temp
°C
App
Temp
°C
Dew
Point
Rel
Hum
%
Delta-T
°C
Wind Press
QNH
hPa
Press
MSL
hPa
Rain
since 9 am
mm
Dir
 
Spd
km/h
Gust
km/h
Spd
kts
Gust
kts
21/11:30pm -4.3 -9.7 -4.4 99 -0.2 SSW 15 20 8 11 - - 0.2
21/11:00pm -4.3 -9.3 -4.4 99 -0.2 SW 13 19 7 10 - - 0.2
21/10:30pm -4.1 -8.7 -4.2 99 -0.2 SW 11 15 6 8 - - 0.2
21/10:00pm -4.0 -9.0 -4.1 99 -0.1 SW 13 17 7 9 - - 0.2
21/09:30pm -3.6 -7.4 -3.7 99 -0.1 S 7 9 4 5 - - 0.2
21/09:00pm -3.2 -6.4 -3.3 99 -0.1 E 4 6 2 3 - - 0.2
21/08:30pm -3.0 -5.4 -3.1 99 -0.1 CALM 0 0 0 0 - - 0.2
21/08:00pm -2.7 -5.4 -2.8 99 -0.1 E 2 9 1 5 - - 0.2
21/07:30pm -2.5 -5.6 -2.6 99 -0.1 E 4 9 2 5 - - 0.2
21/07:00pm -2.7 -6.4 -2.8 99 -0.1 E 7 11 4 6 - - 0.2
21/06:30pm -3.0 -7.5 -3.1 99 -0.1 N 11 13 6 7 - - 0.2
21/06:00pm -2.9 -7.0 -3.0 99 -0.1 WNW 9 11 5 6 - - 0.2
21/05:30pm -2.3 -5.7 -2.4 99 -0.1 WNW 6 7 3 4 - - 0.2
21/05:00pm -1.5 -4.5 -1.6 99 0.0 WNW 4 7 2 4 - - 0.2
21/04:30pm -1.3 -4.8 -1.4 99 0.0 WNW 7 11 4 6 - - 0.2
21/04:00pm -1.2 -5.8 -1.3 99 0.0 NW 13 17 7 9 - - 0.2
21/03:30pm -1.3 -5.9 -1.4 99 0.0 NNW 13 17 7 9 - - 0.2
21/03:00pm -1.3 -5.6 -1.4 99 0.0 NNW 11 13 6 7 - - 0.0
21/02:30pm -1.4 -6.1 -1.5 99 0.0 NW 13 15 7 8 - - 0.0
21/02:00pm -1.6 -7.0 -1.7 99 0.0 NW 17 20 9 11 - - 0.0
21/01:30pm -1.7 -7.2 -1.8 99 0.0 NW 17 19 9 10 - - 0.0
21/01:00pm -1.8 -7.3 -1.9 99 -0.1 NW 17 22 9 12 - - 0.0
21/12:30pm -2.0 -7.5 -2.1 99 -0.1 NNW 17 20 9 11 - - 0.0
21/12:00pm -2.4 -8.0 -2.5 99 -0.1 NW 17 20 9 11 - - 0.0
21/11:30am -2.8 -8.4 -2.9 99 -0.1 NNW 17 19 9 10 - - 0.0
21/11:00am -2.9 -7.8 -3.0 99 -0.1 NNW 13 17 7 9 - - 0.0
21/10:30am -3.2 -9.2 -3.3 99 -0.1 NW 19 22 10 12 - - 0.0
21/10:00am -3.4 -9.6 -3.5 99 -0.1 NW 20 22 11 12 - - 0.0
21/09:30am -3.7 -9.8 -3.8 99 -0.1 NW 19 20 10 11 - - 0.0
21/09:00am -4.0 -10.1 -4.1 99 -0.1 NW 19 20 10 11 - - 0.2
21/08:30am -4.3 -9.7 -4.4 99 -0.2 WNW 15 17 8 9 - - 0.2
21/08:00am -4.4 -9.4 -4.5 99 -0.2 W 13 17 7 9 - - 0.2
21/07:30am -4.4 -10.2 -4.5 99 -0.2 WNW 17 20 9 11 - - 0.2
21/07:00am -4.4 -10.2 -4.5 99 -0.2 WNW 17 17 9 9 - - 0.2
21/06:30am -4.4 -10.2 -4.5 99 -0.2 W 17 19 9 10 - - 0.2
21/06:00am -4.3 -10.5 -4.4 99 -0.2 W 19 20 10 11 - - 0.2
21/05:30am -4.3 -10.5 -4.4 99 -0.2 WNW 19 20 10 11 - - 0.2
21/05:00am -4.5 -10.9 -4.6 99 -0.2 WNW 20 22 11 12 - - 0.2
21/04:30am -4.6 -11.0 -4.7 99 -0.2 WNW 20 22 11 12 - - 0.2
21/04:00am -4.7 -11.1 -4.8 99 -0.2 WNW 20 24 11 13 - - 0.2
21/03:30am -4.8 -11.0 -4.9 99 -0.2 WNW 19 20 10 11 - - 0.2
21/03:00am -4.8 -11.0 -4.9 99 -0.2 NW 19 20 10 11 - - 0.2
21/02:30am -4.6 -10.4 -4.7 99 -0.2 NW 17 20 9 11 - - 0.2
21/02:00am -4.5 -10.3 -4.6 99 -0.2 WNW 17 20 9 11 - - 0.2
21/01:30am -4.3 -10.1 -4.4 99 -0.2 WNW 17 22 9 12 - - 0.2
21/01:00am -4.2 -9.6 -4.3 99 -0.2 WNW 15 19 8 10 - - 0.2
21/12:30am -4.0 -9.4 -4.1 99 -0.1 NW 15 17 8 9 - - 0.2
21/12:00am -4.0 -9.0 -4.1 99 -0.1 WNW 13 15 7 8 - - 0.2
 
Date/Time
EST
Temp
°C
App
Temp
°C
Dew
Point
Rel
Hum
%
Delta-T
°C
Wind Press
QNH
hPa
Press
MSL
hPa
Rain
since 9 am
mm
Dir
 
Spd
km/h
Gust
km/h
Spd
kts
Gust
kts
20/11:30pm -3.7 -8.3 -3.8 99 -0.1 W 11 13 6 7 - - 0.2
20/11:00pm -3.6 -6.1 -3.7 99 -0.1 CALM 0 0 0 0 - - 0.2
20/10:30pm -3.3 -5.7 -3.4 99 -0.1 CALM 0 0 0 0 - - 0.2
20/10:00pm -3.1 -6.6 -3.2 99 -0.1 S 6 7 3 4 - - 0.2
20/09:30pm -3.2 -6.8 -3.3 99 -0.1 S 6 7 3 4 - - 0.2
20/09:00pm -3.1 -6.6 -3.2 99 -0.1 S 6 9 3 5 - - 0.2
20/08:30pm -3.0 -6.7 -3.1 99 -0.1 S 7 9 4 5 - - 0.2
20/08:00pm -2.8 -6.9 -2.9 99 -0.1 S 9 13 5 7 - - 0.2
20/07:30pm -2.4 -6.8 -2.5 99 -0.1 S 11 13 6 7 - - 0.2

Other Formats:

Comma delimited format used in spreadsheet applications
http://www.bom.gov.au/fwo/IDV60801/IDV60801.94906.axf

JavaScript Object Notation format (JSON) in row-major order
http://www.bom.gov.au/fwo/IDV60801/IDV60801.94906.json